Time;durP1;ratioP1;P1;durP2;ratioP2;P2;SDS_P1;SDS_P2;PMS_P1;PMS_P2;Temp;Humidity;BMP_temperature;BMP_pressure;BME280_temperature;BME280_humidity;BME280_pressure;Samples;Min_cycle;Max_cycle;Signal;HPM_P1;HPM_P2
2021/05/06 00:00:16;;;;;;;2.37;1.50;;;23.20;48.20;;;;;;4966925;29;20518;-86
2021/05/06 00:11:21;;;;;;;1.93;1.20;;;23.10;48.20;;;;;;5037014;28;20430;-86
2021/05/06 00:30:19;;;;;;;2.63;1.50;;;23.10;48.10;;;;;;5029312;28;20497;-86
2021/05/06 00:33:06;;;;;;;3.50;1.27;;;23.10;48.20;;;;;;5011590;28;20468;-86
2021/05/06 00:35:34;;;;;;;2.83;1.30;;;23.10;48.20;;;;;;5033756;28;20431;-86
2021/05/06 00:38:06;;;;;;;3.20;1.53;;;23.10;48.20;;;;;;5037135;28;20422;-86
2021/05/06 00:41:09;;;;;;;3.20;1.40;;;23.00;48.10;;;;;;5023336;28;20431;-85
2021/05/06 00:59:41;;;;;;;2.90;1.40;;;22.90;48.20;;;;;;5037527;28;20419;-86
2021/05/06 01:04:40;;;;;;;2.50;1.40;;;22.90;48.30;;;;;;5030035;28;20427;-86
2021/05/06 01:10:23;;;;;;;2.00;1.50;;;22.90;48.20;;;;;;5031639;28;20427;-86
2021/05/06 01:12:40;;;;;;;1.70;1.20;;;22.90;48.20;;;;;;5032442;28;20525;-86
2021/05/06 01:15:07;;;;;;;3.90;1.33;;;22.90;48.30;;;;;;5015641;28;20423;-86
2021/05/06 01:17:32;;;;;;;2.13;0.97;;;22.90;48.20;;;;;;5025028;28;20462;-86
2021/05/06 01:20:05;;;;;;;3.10;1.20;;;22.90;48.20;;;;;;5034247;28;20492;-86
2021/05/06 01:22:32;;;;;;;1.30;0.90;;;22.90;48.20;;;;;;5034702;28;20239;-86
2021/05/06 01:24:59;;;;;;;3.37;0.97;;;22.90;48.20;;;;;;5034372;28;20454;-86
2021/05/06 01:27:34;;;;;;;2.30;1.27;;;22.90;48.20;;;;;;5013877;28;20489;-85
2021/05/06 01:30:11;;;;;;;1.83;1.27;;;22.90;48.20;;;;;;5034993;28;20430;-85
2021/05/06 01:32:44;;;;;;;1.90;1.40;;;22.90;48.20;;;;;;5029754;28;20454;-85
2021/05/06 01:35:17;;;;;;;2.30;1.20;;;22.90;48.20;;;;;;5019213;28;20432;-84
2021/05/06 01:42:53;;;;;;;3.53;1.43;;;22.90;48.20;;;;;;5038243;28;20528;-85
2021/05/06 01:57:28;;;;;;;2.23;1.47;;;22.90;48.20;;;;;;4964361;28;20420;-85
2021/05/06 01:59:38;;;;;;;2.63;1.47;;;22.90;48.20;;;;;;4970098;28;20522;-84
2021/05/06 02:02:09;;;;;;;3.20;1.20;;;22.80;48.10;;;;;;4966643;29;20418;-84
2021/05/06 02:04:35;;;;;;;2.23;1.10;;;22.90;48.20;;;;;;4977448;28;20455;-84
2021/05/06 02:07:03;;;;;;;1.70;1.30;;;22.80;48.10;;;;;;4975267;28;20429;-84
2021/05/06 02:09:29;;;;;;;2.30;1.30;;;22.80;48.20;;;;;;4967300;29;20178;-85
2021/05/06 02:11:54;;;;;;;2.03;1.30;;;22.90;48.20;;;;;;4966860;29;20433;-84
2021/05/06 02:14:20;;;;;;;2.17;1.37;;;22.90;48.20;;;;;;4966822;29;20473;-84
2021/05/06 02:16:46;;;;;;;1.97;1.20;;;22.90;48.20;;;;;;4967893;29;20202;-85
2021/05/06 02:19:17;;;;;;;4.33;1.57;;;22.90;48.20;;;;;;4991857;28;20410;-85
2021/05/06 02:21:43;;;;;;;2.00;1.20;;;22.90;48.10;;;;;;5047546;28;20159;-85
2021/05/06 02:24:09;;;;;;;2.37;1.23;;;22.80;48.10;;;;;;5029326;28;20530;-85
2021/05/06 02:26:34;;;;;;;1.53;1.17;;;22.90;48.20;;;;;;5047902;28;20422;-85
2021/05/06 02:29:00;;;;;;;2.40;1.13;;;22.80;48.10;;;;;;5048335;28;20176;-85
2021/05/06 02:31:27;;;;;;;2.10;1.20;;;22.80;48.20;;;;;;5047966;28;20172;-85
2021/05/06 02:33:54;;;;;;;2.10;1.20;;;22.80;48.20;;;;;;5047988;28;20274;-85
2021/05/06 02:36:20;;;;;;;1.63;1.30;;;22.80;48.30;;;;;;5047898;28;20410;-85
2021/05/06 02:38:46;;;;;;;1.60;0.83;;;22.80;48.30;;;;;;5047903;28;20429;-85
2021/05/06 02:44:35;;;;;;;3.43;1.37;;;22.80;48.30;;;;;;5047840;28;20182;-85
2021/05/06 02:47:02;;;;;;;2.20;1.07;;;22.70;48.30;;;;;;5030102;28;20407;-85
2021/05/06 02:49:28;;;;;;;2.00;1.30;;;22.60;48.30;;;;;;5029565;28;20450;-85
2021/05/06 02:55:30;;;;;;;1.70;1.00;;;22.70;48.30;;;;;;5047669;28;20554;-86
2021/05/06 02:58:01;;;;;;;1.57;1.20;;;22.60;48.40;;;;;;5047564;28;20390;-85
2021/05/06 03:03:12;;;;;;;1.77;1.00;;;22.60;48.40;;;;;;5047606;28;20390;-85
2021/05/06 03:05:39;;;;;;;1.60;0.90;;;22.60;48.40;;;;;;5030229;28;20418;-85
2021/05/06 03:08:30;;;;;;;2.10;1.27;;;22.60;48.40;;;;;;5032928;28;20194;-85
2021/05/06 03:14:05;;;;;;;2.73;1.23;;;22.60;48.50;;;;;;5050920;28;20454;-85
2021/05/06 03:24:44;;;;;;;1.80;1.10;;;22.50;48.50;;;;;;4989514;28;20409;-85
2021/05/06 03:27:13;;;;;;;1.53;1.20;;;22.50;48.50;;;;;;4990097;28;20480;-85
2021/05/06 03:29:45;;;;;;;1.90;1.00;;;22.50;48.50;;;;;;4989013;28;20433;-85
2021/05/06 03:35:13;;;;;;;2.00;1.30;;;22.50;48.50;;;;;;4983932;28;20971;-85
2021/05/06 04:13:04;;;;;;;1.60;0.90;;;22.40;48.60;;;;;;5048866;28;20979;-85
2021/05/06 04:15:41;;;;;;;1.50;0.97;;;22.40;48.60;;;;;;5048390;28;20426;-86
2021/05/06 04:18:19;;;;;;;1.70;0.90;;;22.40;48.70;;;;;;5030770;28;20419;-86
2021/05/06 04:22:11;;;;;;;3.37;1.10;;;22.30;48.60;;;;;;5030033;28;20411;-85
2021/05/06 04:26:32;;;;;;;2.63;1.20;;;22.40;48.70;;;;;;5048096;28;20389;-85
2021/05/06 04:37:20;;;;;;;1.20;0.90;;;22.30;48.40;;;;;;5048306;28;20414;-84
2021/05/06 04:39:53;;;;;;;2.40;1.13;;;22.30;48.50;;;;;;5030822;28;20414;-84
2021/05/06 05:04:03;;;;;;;1.60;1.07;;;22.40;48.40;;;;;;4978834;28;20418;-86
2021/05/06 05:06:35;;;;;;;2.07;1.20;;;22.40;48.40;;;;;;5030634;28;20418;-85
2021/05/06 05:11:55;;;;;;;1.60;0.90;;;22.40;48.30;;;;;;5046953;28;20398;-84
2021/05/06 05:25:08;;;;;;;1.17;0.80;;;22.50;48.20;;;;;;5048199;28;20394;-84
2021/05/06 05:27:33;;;;;;;1.40;0.93;;;22.50;48.20;;;;;;5032256;28;20422;-83
2021/05/06 05:29:59;;;;;;;1.83;1.30;;;22.50;48.20;;;;;;5029197;28;20517;-85
2021/05/06 05:32:25;;;;;;;1.00;0.80;;;22.50;48.20;;;;;;5032193;28;20211;-84
2021/05/06 05:35:05;;;;;;;2.30;1.40;;;22.50;48.10;;;;;;5031212;28;20595;-85
2021/05/06 05:37:40;;;;;;;1.63;1.00;;;22.60;48.20;;;;;;5046879;28;20391;-84
2021/05/06 05:40:22;;;;;;;1.30;0.83;;;22.60;48.20;;;;;;5033357;28;20405;-84
2021/05/06 05:56:24;;;;;;;1.27;0.87;;;22.50;48.20;;;;;;5046689;28;20413;-85
2021/05/06 05:58:51;;;;;;;1.47;0.90;;;22.50;48.20;;;;;;5047101;28;20406;-85
2021/05/06 06:01:19;;;;;;;1.00;0.70;;;22.50;48.20;;;;;;5047062;28;20171;-86
2021/05/06 06:03:45;;;;;;;2.03;0.80;;;22.50;48.10;;;;;;5028780;28;20415;-85
2021/05/06 06:06:11;;;;;;;3.57;1.00;;;22.50;48.20;;;;;;5029553;28;20473;-85
2021/05/06 06:08:37;;;;;;;4.90;1.33;;;22.50;48.20;;;;;;5030266;28;20187;-85
2021/05/06 06:11:06;;;;;;;5.00;1.33;;;22.60;48.30;;;;;;5029085;28;20411;-85
2021/05/06 06:13:32;;;;;;;4.13;1.07;;;22.60;48.30;;;;;;5029734;28;20207;-85
2021/05/06 06:18:39;;;;;;;3.63;1.00;;;22.70;48.30;;;;;;5047717;28;20410;-84
2021/05/06 06:21:21;;;;;;;5.73;1.43;;;22.70;48.30;;;;;;5048819;28;20383;-84
2021/05/06 06:23:47;;;;;;;2.33;1.00;;;22.70;48.30;;;;;;5049414;28;20413;-83
2021/05/06 06:26:13;;;;;;;1.90;1.00;;;22.80;48.40;;;;;;5031123;28;20425;-84
2021/05/06 06:28:45;;;;;;;1.40;0.90;;;22.80;48.40;;;;;;5032060;28;20414;-85
2021/05/06 06:31:23;;;;;;;4.77;1.40;;;22.80;48.30;;;;;;5032050;28;20406;-85
2021/05/06 06:33:50;;;;;;;1.27;1.03;;;22.80;48.30;;;;;;5048119;28;20472;-85
2021/05/06 06:36:20;;;;;;;3.43;1.83;;;22.80;48.30;;;;;;5032538;28;20411;-85
2021/05/06 06:38:49;;;;;;;1.83;0.90;;;22.80;48.20;;;;;;5030456;28;20490;-85
2021/05/06 06:41:16;;;;;;;1.50;0.90;;;22.90;48.30;;;;;;5029652;28;20429;-85
2021/05/06 06:43:45;;;;;;;3.20;1.37;;;22.90;48.20;;;;;;5033591;28;20425;-85
2021/05/06 06:46:11;;;;;;;2.83;1.17;;;22.90;48.20;;;;;;5050786;28;20414;-85
2021/05/06 06:48:36;;;;;;;1.50;0.90;;;22.90;48.10;;;;;;5033332;28;20417;-85
2021/05/06 06:51:02;;;;;;;2.87;1.30;;;23.00;48.20;;;;;;5036372;28;20787;-85
2021/05/06 06:53:29;;;;;;;2.37;1.30;;;23.00;48.20;;;;;;5052918;28;20317;-85
2021/05/06 06:55:58;;;;;;;2.37;1.13;;;23.00;48.20;;;;;;5070227;28;20413;-86
2021/05/06 06:58:24;;;;;;;2.67;1.47;;;23.00;48.10;;;;;;5053304;28;20414;-85
2021/05/06 07:00:51;;;;;;;3.47;1.37;;;23.00;48.20;;;;;;5069879;28;20440;-85
2021/05/06 07:03:17;;;;;;;3.73;1.20;;;23.00;48.10;;;;;;5070733;28;20712;-85
2021/05/06 07:05:43;;;;;;;3.13;1.10;;;23.00;48.10;;;;;;5069746;28;20417;-85
2021/05/06 07:08:26;;;;;;;1.73;1.37;;;23.00;48.00;;;;;;5053030;28;20931;-86
2021/05/06 07:10:55;;;;;;;1.70;1.00;;;23.10;48.10;;;;;;5052349;28;20414;-85
2021/05/06 07:13:22;;;;;;;1.00;0.70;;;23.10;48.10;;;;;;5070144;28;20449;-85
2021/05/06 07:15:53;;;;;;;1.23;0.87;;;23.00;48.00;;;;;;5052126;28;20906;-84
2021/05/06 07:18:20;;;;;;;1.67;1.00;;;23.10;48.60;;;;;;5072627;28;20463;-85
2021/05/06 07:20:46;;;;;;;2.07;1.23;;;23.10;48.10;;;;;;5071235;28;20420;-84
2021/05/06 07:23:18;;;;;;;2.63;1.37;;;23.10;48.00;;;;;;5052728;28;20937;-85
2021/05/06 07:25:45;;;;;;;2.90;1.00;;;23.10;48.00;;;;;;5055041;28;20421;-85
2021/05/06 07:28:13;;;;;;;1.90;1.20;;;23.10;48.10;;;;;;5051657;28;20443;-85
2021/05/06 07:30:39;;;;;;;2.20;1.20;;;23.10;48.00;;;;;;5053092;28;20418;-84
2021/05/06 07:33:05;;;;;;;3.03;1.10;;;23.10;48.00;;;;;;5071436;28;20464;-84
2021/05/06 07:35:33;;;;;;;2.50;1.23;;;23.10;48.00;;;;;;5069328;28;20402;-84
2021/05/06 07:37:59;;;;;;;1.33;1.00;;;23.10;48.00;;;;;;5051854;28;20479;-84
2021/05/06 07:40:27;;;;;;;1.00;0.80;;;23.10;47.90;;;;;;5069448;28;20409;-84
2021/05/06 07:42:53;;;;;;;2.47;1.00;;;23.10;47.90;;;;;;5052254;28;20188;-85
2021/05/06 07:45:19;;;;;;;3.80;1.30;;;23.10;47.90;;;;;;5069608;28;20441;-85
2021/05/06 07:47:45;;;;;;;2.13;1.20;;;23.10;47.90;;;;;;5052033;28;20303;-85
2021/05/06 07:50:15;;;;;;;3.63;1.30;;;23.10;47.90;;;;;;5070899;28;20417;-86
2021/05/06 07:52:43;;;;;;;1.47;0.90;;;23.10;47.90;;;;;;5052448;28;20211;-86
2021/05/06 07:55:12;;;;;;;2.03;1.40;;;23.10;47.80;;;;;;5071152;28;20413;-86
2021/05/06 07:57:38;;;;;;;1.80;1.17;;;23.20;47.90;;;;;;5052580;28;20493;-87
2021/05/06 08:00:10;;;;;;;2.13;1.17;;;23.20;47.90;;;;;;5052836;28;20421;-86
2021/05/06 08:02:36;;;;;;;2.50;1.50;;;23.20;47.90;;;;;;5069529;28;20485;-87
2021/05/06 08:05:06;;;;;;;1.87;0.90;;;23.20;47.90;;;;;;5052473;28;20437;-86
2021/05/06 08:07:31;;;;;;;2.40;1.20;;;23.20;47.80;;;;;;5070955;28;20190;-85
2021/05/06 08:09:57;;;;;;;2.10;1.50;;;23.20;47.80;;;;;;5070068;28;20439;-85
2021/05/06 08:12:26;;;;;;;9.27;4.60;;;23.10;48.30;;;;;;5053518;28;20183;-86
2021/05/06 08:14:53;;;;;;;18.67;9.57;;;23.20;47.80;;;;;;5071841;28;20176;-86
2021/05/06 08:17:19;;;;;;;31.17;15.97;;;23.20;47.80;;;;;;5071525;28;20492;-86
2021/05/06 08:19:47;;;;;;;34.83;20.10;;;23.20;47.80;;;;;;5055670;28;20405;-86
2021/05/06 08:22:13;;;;;;;40.33;25.57;;;23.10;47.70;;;;;;5053170;28;20915;-85
2021/05/06 08:24:40;;;;;;;55.03;33.30;;;23.20;47.80;;;;;;5070019;28;20437;-85
2021/05/06 08:27:06;;;;;;;66.23;40.30;;;23.10;47.70;;;;;;5052540;28;20408;-85
2021/05/06 08:29:31;;;;;;;73.47;44.00;;;23.20;47.80;;;;;;5070229;28;20435;-85
2021/05/06 08:31:57;;;;;;;82.67;44.40;;;23.20;47.80;;;;;;5052327;28;20489;-85
2021/05/06 08:34:23;;;;;;;94.80;54.00;;;23.20;47.80;;;;;;5070196;28;20252;-85
2021/05/06 08:36:49;;;;;;;86.60;55.23;;;23.20;47.80;;;;;;5052555;28;20201;-85
2021/05/06 08:39:21;;;;;;;91.70;56.07;;;23.20;47.80;;;;;;5070529;28;20410;-84
2021/05/06 08:41:47;;;;;;;86.60;54.80;;;23.20;47.80;;;;;;5052881;28;20308;-83
2021/05/06 08:44:16;;;;;;;91.03;56.00;;;23.20;47.70;;;;;;5044109;28;20422;-84
2021/05/06 08:47:02;;;;;;;102.57;57.27;;;23.20;47.80;;;;;;5033262;28;20515;-84
2021/05/06 08:49:31;;;;;;;87.57;54.23;;;23.20;47.60;;;;;;5038254;28;20440;-84
2021/05/06 08:51:59;;;;;;;86.97;54.13;;;23.20;47.70;;;;;;5030862;28;20452;-84
2021/05/06 08:54:26;;;;;;;93.43;53.17;;;23.30;47.70;;;;;;5012302;28;20459;-84
2021/05/06 08:56:55;;;;;;;85.17;53.67;;;23.30;47.70;;;;;;5030887;28;20438;-84
2021/05/06 08:59:21;;;;;;;90.67;53.70;;;23.30;47.70;;;;;;5013050;28;20416;-84
2021/05/06 09:01:48;;;;;;;83.90;53.23;;;23.20;47.70;;;;;;5030419;28;20422;-84
2021/05/06 09:04:14;;;;;;;86.77;52.47;;;23.30;47.70;;;;;;5030387;28;20411;-84
2021/05/06 09:06:57;;;;;;;83.13;52.67;;;23.30;47.80;;;;;;5030803;28;20415;-84
2021/05/06 09:09:26;;;;;;;74.50;51.33;;;23.30;47.70;;;;;;5014205;28;20457;-84
2021/05/06 09:11:56;;;;;;;75.03;49.30;;;23.30;47.70;;;;;;5012882;28;20424;-83
2021/05/06 09:14:41;;;;;;;77.07;49.37;;;23.40;47.80;;;;;;5013187;28;20502;-83
2021/05/06 09:17:24;;;;;;;74.77;50.37;;;23.40;47.80;;;;;;5013488;28;20418;-84
2021/05/06 09:20:08;;;;;;;74.93;47.67;;;23.40;48.00;;;;;;5013067;28;20490;-84
2021/05/06 09:23:02;;;;;;;76.00;48.97;;;23.40;48.00;;;;;;5012017;28;20515;-84
2021/05/06 09:25:32;;;;;;;71.87;45.80;;;23.40;47.80;;;;;;5011726;28;20420;-84
2021/05/06 09:28:09;;;;;;;78.17;45.57;;;23.40;47.80;;;;;;5029255;28;20434;-85
2021/05/06 09:30:39;;;;;;;69.63;45.60;;;23.40;47.80;;;;;;5011818;28;20427;-85
2021/05/06 09:33:09;;;;;;;67.40;44.03;;;23.40;47.80;;;;;;5031213;28;20530;-83
2021/05/06 09:36:09;;;;;;;66.57;43.60;;;23.40;47.90;;;;;;4996939;28;20443;-84
2021/05/06 09:38:57;;;;;;;66.40;43.50;;;23.40;47.70;;;;;;4999663;28;20420;-84
2021/05/06 09:41:24;;;;;;;64.07;40.80;;;23.30;47.80;;;;;;5029070;28;20415;-84
2021/05/06 09:43:50;;;;;;;63.63;43.20;;;23.40;47.80;;;;;;5010964;28;20450;-84
2021/05/06 09:46:32;;;;;;;67.40;42.37;;;23.30;48.00;;;;;;5028396;28;20416;-84
2021/05/06 09:49:14;;;;;;;63.50;40.97;;;23.40;47.70;;;;;;5012107;28;20423;-85
2021/05/06 09:51:41;;;;;;;60.33;39.80;;;23.40;47.70;;;;;;5014275;28;20408;-85
2021/05/06 09:54:11;;;;;;;65.00;41.30;;;23.40;47.90;;;;;;5013251;28;20469;-85
2021/05/06 09:56:39;;;;;;;65.40;39.83;;;23.60;47.90;;;;;;5032348;28;20404;-84
2021/05/06 09:59:05;;;;;;;53.33;37.03;;;23.50;47.80;;;;;;5014128;28;20416;-84
2021/05/06 10:01:36;;;;;;;65.20;40.20;;;23.40;48.40;;;;;;5012922;28;20447;-83
2021/05/06 10:04:30;;;;;;;58.50;38.23;;;23.40;47.60;;;;;;5030547;28;20877;-83
2021/05/06 10:07:07;;;;;;;65.13;41.43;;;23.50;47.70;;;;;;5012373;28;20458;-84
2021/05/06 10:09:33;;;;;;;53.00;36.27;;;23.50;47.90;;;;;;5030001;28;20507;-83
2021/05/06 10:12:00;;;;;;;56.07;36.30;;;23.50;48.00;;;;;;5030970;28;20470;-83
2021/05/06 10:14:30;;;;;;;50.77;36.43;;;23.50;47.80;;;;;;5012223;28;20466;-84
2021/05/06 10:17:01;;;;;;;52.20;36.47;;;23.50;47.90;;;;;;5001752;28;20425;-84
2021/05/06 10:19:27;;;;;;;50.07;36.00;;;23.50;48.00;;;;;;5019070;28;20399;-84
2021/05/06 10:21:54;;;;;;;53.03;32.83;;;23.50;47.90;;;;;;5037148;28;20465;-84
2021/05/06 10:24:25;;;;;;;46.83;32.83;;;23.50;47.70;;;;;;5038305;28;20156;-83
2021/05/06 10:27:46;;;;;;;47.33;32.47;;;23.50;47.70;;;;;;5021427;28;20474;-83
2021/05/06 10:30:24;;;;;;;55.37;33.30;;;23.50;47.70;;;;;;5033527;28;20430;-83
2021/05/06 10:32:53;;;;;;;46.93;31.30;;;23.50;47.70;;;;;;5015606;28;20542;-84
2021/05/06 10:35:25;;;;;;;47.60;30.77;;;23.40;47.60;;;;;;5015966;28;20429;-84
2021/05/06 10:37:58;;;;;;;46.20;29.90;;;23.50;47.70;;;;;;5016158;28;20795;-87
2021/05/06 10:40:26;;;;;;;47.27;32.17;;;23.50;47.70;;;;;;5016218;28;20419;-87
2021/05/06 10:42:56;;;;;;;52.00;31.10;;;23.30;47.50;;;;;;5016058;28;20430;-87
2021/05/06 10:45:54;;;;;;;;;;;;;;;;;;;;;
2021/05/06 10:48:21;;;;;;;42.63;28.63;;;23.50;47.70;;;;;;4934736;29;20566;-87
2021/05/06 10:50:47;;;;;;;48.23;31.43;;;23.50;47.70;;;;;;4918656;29;20462;-88
2021/05/06 10:53:30;;;;;;;44.80;29.10;;;23.40;47.70;;;;;;4918977;29;20463;-88
2021/05/06 10:56:06;;;;;;;;;;;;;;;;;;;;;
2021/05/06 10:58:54;;;;;;;39.23;27.83;;;23.50;47.70;;;;;;4934244;29;20581;-88
2021/05/06 11:01:20;;;;;;;43.77;29.13;;;23.40;48.20;;;;;;4933245;29;20420;-87
2021/05/06 11:04:12;;;;;;;46.20;29.87;;;23.40;47.50;;;;;;4916800;29;20427;-87
2021/05/06 11:06:40;;;;;;;44.13;27.80;;;23.50;47.90;;;;;;4930800;29;20521;-90
2021/05/06 11:09:33;;;;;;;49.20;30.03;;;23.50;47.70;;;;;;4932565;29;20841;-89
2021/05/06 11:12:21;;;;;;;50.00;29.93;;;23.40;47.50;;;;;;4917789;29;21024;-88
2021/05/06 11:15:02;;;;;;;49.10;30.50;;;23.40;47.60;;;;;;4934259;29;20526;-87
2021/05/06 11:17:36;;;;;;;46.70;29.40;;;23.40;47.60;;;;;;4918538;29;20506;-88
2021/05/06 11:20:23;;;;;;;48.97;27.80;;;23.30;47.50;;;;;;4920033;29;20430;-88
2021/05/06 11:22:59;;;;;;;47.27;30.20;;;23.50;47.90;;;;;;4917715;29;20432;-87
2021/05/06 11:25:38;;;;;;;49.70;29.70;;;23.40;48.00;;;;;;4983063;28;20418;-87
2021/05/06 11:28:05;;;;;;;41.10;27.70;;;23.40;47.80;;;;;;5030659;28;20402;-87
2021/05/06 11:30:37;;;;;;;41.33;26.40;;;23.40;47.80;;;;;;5011452;28;20408;-87
2021/05/06 11:33:18;;;;;;;52.77;27.93;;;23.40;48.30;;;;;;5028956;28;20853;-88
2021/05/06 11:36:02;;;;;;;52.27;28.07;;;23.40;48.30;;;;;;5011338;28;20411;-86
2021/05/06 11:38:41;;;;;;;48.13;27.67;;;23.40;47.80;;;;;;5030288;28;20417;-86
2021/05/06 11:41:42;;;;;;;49.77;26.90;;;23.40;47.90;;;;;;5025093;28;20422;-85
2021/05/06 11:44:08;;;;;;;48.60;30.70;;;23.40;47.90;;;;;;5031387;28;20486;-86
2021/05/06 11:46:38;;;;;;;43.97;25.83;;;23.40;48.30;;;;;;5034082;28;20444;-86
2021/05/06 11:49:06;;;;;;;50.43;27.63;;;23.40;48.00;;;;;;5032777;28;20419;-86
2021/05/06 11:51:43;;;;;;;49.50;28.73;;;23.40;47.90;;;;;;5033045;28;20422;-86
2021/05/06 11:54:18;;;;;;;47.07;27.30;;;23.40;47.90;;;;;;5033118;28;20489;-85
2021/05/06 11:56:57;;;;;;;46.50;26.47;;;23.40;47.80;;;;;;5050093;28;20471;-85
2021/05/06 11:59:25;;;;;;;43.43;26.27;;;23.40;47.90;;;;;;5016910;28;20426;-85
2021/05/06 12:01:51;;;;;;;42.30;26.10;;;23.40;47.90;;;;;;5032588;28;20436;-85
2021/05/06 12:04:25;;;;;;;45.13;27.90;;;23.50;48.10;;;;;;5032784;28;20414;-85
2021/05/06 12:06:57;;;;;;;45.83;27.70;;;23.40;47.90;;;;;;5033171;28;20453;-85
2021/05/06 12:09:25;;;;;;;36.37;24.47;;;23.40;48.10;;;;;;5030390;28;20414;-86
2021/05/06 12:11:54;;;;;;;45.53;27.33;;;23.40;47.90;;;;;;5042276;28;20487;-86
2021/05/06 12:14:33;;;;;;;48.00;25.97;;;23.40;47.90;;;;;;5028747;28;20450;-86
2021/05/06 12:16:59;;;;;;;40.87;25.83;;;23.40;48.00;;;;;;5033114;28;20402;-86
2021/05/06 12:19:25;;;;;;;46.20;25.87;;;23.40;48.00;;;;;;5032238;28;20510;-86
2021/05/06 12:21:55;;;;;;;40.07;25.10;;;23.40;48.00;;;;;;5031618;28;20419;-86
2021/05/06 12:24:30;;;;;;;37.77;24.70;;;23.40;47.90;;;;;;5032853;28;20536;-85
2021/05/06 12:26:57;;;;;;;41.40;24.10;;;23.40;47.90;;;;;;5033549;28;20536;-86
2021/05/06 12:29:25;;;;;;;42.27;24.67;;;23.40;47.90;;;;;;5032730;28;20425;-86
2021/05/06 12:31:52;;;;;;;40.13;24.20;;;23.40;48.00;;;;;;5032856;28;20474;-86
2021/05/06 12:34:23;;;;;;;38.13;22.80;;;23.40;48.10;;;;;;5032429;28;20477;-86
2021/05/06 12:37:07;;;;;;;39.67;24.00;;;23.40;47.90;;;;;;5032434;28;20478;-86
2021/05/06 12:39:39;;;;;;;34.50;20.73;;;23.40;48.30;;;;;;5031021;28;20426;-86
2021/05/06 12:42:08;;;;;;;32.57;22.03;;;23.40;48.00;;;;;;5050241;28;20405;-86
2021/05/06 12:44:34;;;;;;;32.27;21.40;;;23.40;48.00;;;;;;5032247;28;20444;-86
2021/05/06 12:47:19;;;;;;;32.57;21.17;;;23.30;48.20;;;;;;5032567;28;20841;-86
2021/05/06 12:50:13;;;;;;;36.30;23.23;;;23.30;48.00;;;;;;5049635;28;20190;-86
2021/05/06 12:52:41;;;;;;;34.87;20.20;;;23.30;48.00;;;;;;5031977;28;20462;-85
2021/05/06 12:55:25;;;;;;;32.90;22.47;;;23.30;48.10;;;;;;5032938;28;20498;-86
2021/05/06 12:58:06;;;;;;;30.17;19.17;;;23.30;48.10;;;;;;5032377;28;20441;-85
2021/05/06 13:00:34;;;;;;;31.30;20.03;;;23.30;48.40;;;;;;5032289;28;20410;-86
2021/05/06 13:03:11;;;;;;;35.90;19.97;;;23.20;48.10;;;;;;5049464;28;20406;-86
2021/05/06 13:05:47;;;;;;;37.20;21.33;;;23.20;48.10;;;;;;5030891;28;20421;-86
2021/05/06 13:08:13;;;;;;;31.23;20.30;;;23.20;48.10;;;;;;5031941;28;20433;-87
2021/05/06 13:10:47;;;;;;;37.63;21.20;;;23.20;48.30;;;;;;5031087;28;20425;-87
2021/05/06 13:13:43;;;;;;;29.10;19.40;;;23.20;48.20;;;;;;5031076;28;20458;-86
2021/05/06 13:16:11;;;;;;;32.27;19.97;;;23.20;48.20;;;;;;5031016;28;20406;-86
2021/05/06 13:18:38;;;;;;;31.73;19.23;;;23.10;48.20;;;;;;5048624;28;20426;-87
2021/05/06 13:21:20;;;;;;;36.10;20.33;;;23.10;48.20;;;;;;5048649;28;20493;-87
2021/05/06 13:23:46;;;;;;;30.97;17.90;;;23.10;48.20;;;;;;5049735;28;20456;-81
2021/05/06 13:26:12;;;;;;;28.70;20.47;;;23.10;48.40;;;;;;5032632;28;20414;-81
2021/05/06 13:28:37;;;;;;;29.63;19.10;;;23.10;48.40;;;;;;5033060;28;20171;-82
2021/05/06 13:31:18;;;;;;;29.27;19.87;;;23.10;48.40;;;;;;5050048;28;20468;-82
2021/05/06 13:33:50;;;;;;;26.00;17.20;;;23.20;48.30;;;;;;5050333;28;20543;-81
2021/05/06 13:36:17;;;;;;;29.43;17.53;;;23.20;48.40;;;;;;5050091;28;20430;-82
2021/05/06 13:38:55;;;;;;;27.80;18.30;;;23.20;48.30;;;;;;5049294;28;20490;-81
2021/05/06 13:41:32;;;;;;;25.40;17.20;;;23.20;48.20;;;;;;5050398;28;20460;-81
2021/05/06 13:44:00;;;;;;;25.30;18.33;;;23.20;48.20;;;;;;5032884;28;20513;-81
2021/05/06 13:46:27;;;;;;;26.40;18.00;;;23.20;48.30;;;;;;5033069;28;20774;-82
2021/05/06 13:48:53;;;;;;;23.83;16.67;;;23.20;48.10;;;;;;5049857;28;20519;-80
2021/05/06 13:51:23;;;;;;;23.87;17.63;;;23.20;48.10;;;;;;5050934;28;20411;-80
2021/05/06 13:53:51;;;;;;;28.27;15.40;;;23.30;48.20;;;;;;5034641;28;20449;-84
2021/05/06 13:56:18;;;;;;;23.80;14.90;;;23.30;48.20;;;;;;5052046;28;20421;-81
2021/05/06 13:58:44;;;;;;;23.50;16.37;;;23.30;48.20;;;;;;5051078;28;20410;-82
2021/05/06 14:01:12;;;;;;;29.90;16.17;;;23.30;48.30;;;;;;5031994;28;20433;-82
2021/05/06 14:03:39;;;;;;;23.33;15.60;;;23.30;48.10;;;;;;5049228;28;20420;-82
2021/05/06 14:06:06;;;;;;;22.50;17.47;;;23.30;48.10;;;;;;5046854;28;20425;-81
2021/05/06 14:08:35;;;;;;;27.13;17.50;;;23.30;48.10;;;;;;5046046;28;20449;-81
2021/05/06 14:11:02;;;;;;;27.00;16.23;;;23.30;48.20;;;;;;5046121;28;20417;-84
2021/05/06 14:13:30;;;;;;;22.57;15.87;;;23.20;48.20;;;;;;5044869;28;20453;-82
2021/05/06 14:15:56;;;;;;;23.90;15.50;;;23.20;48.10;;;;;;5047434;28;20426;-84
2021/05/06 14:18:22;;;;;;;25.53;16.30;;;22.90;48.00;;;;;;5048412;28;20430;-82
2021/05/06 14:20:48;;;;;;;24.20;15.43;;;23.20;48.40;;;;;;5030876;28;20426;-82
2021/05/06 14:23:19;;;;;;;21.87;16.20;;;23.20;48.20;;;;;;5048269;28;20187;-81
2021/05/06 14:25:47;;;;;;;20.30;14.50;;;23.20;48.00;;;;;;5029596;28;20437;-83
2021/05/06 14:28:13;;;;;;;27.60;15.20;;;23.30;48.30;;;;;;5046481;28;20411;-82
2021/05/06 14:30:40;;;;;;;26.47;14.80;;;23.30;48.10;;;;;;5045850;28;20472;-80
2021/05/06 14:33:05;;;;;;;19.87;14.63;;;23.40;48.20;;;;;;5046351;28;20450;-82
2021/05/06 14:35:32;;;;;;;19.30;13.60;;;23.30;48.10;;;;;;5027921;28;20428;-82
2021/05/06 14:37:58;;;;;;;20.50;13.60;;;23.30;48.30;;;;;;5047193;28;20565;-82
2021/05/06 14:40:24;;;;;;;20.20;14.47;;;23.40;48.30;;;;;;5048370;28;20478;-82
2021/05/06 14:42:53;;;;;;;20.27;14.70;;;23.40;48.30;;;;;;5047912;28;20410;-82
2021/05/06 14:45:18;;;;;;;24.93;14.17;;;23.40;48.30;;;;;;5048076;28;20258;-82
2021/05/06 14:47:44;;;;;;;21.73;14.83;;;23.40;48.40;;;;;;5047984;28;20415;-82
2021/05/06 14:50:13;;;;;;;19.03;13.20;;;23.30;48.20;;;;;;5047893;28;20202;-81
2021/05/06 14:52:39;;;;;;;18.40;14.13;;;23.40;48.20;;;;;;5048062;28;20203;-82
2021/05/06 14:55:11;;;;;;;22.90;12.87;;;23.40;48.40;;;;;;5047834;28;20891;-83
2021/05/06 14:57:38;;;;;;;18.97;12.33;;;23.50;48.20;;;;;;5047484;28;20406;-82
2021/05/06 15:00:09;;;;;;;18.90;13.70;;;23.40;48.20;;;;;;5045866;28;20398;-87
2021/05/06 15:02:36;;;;;;;20.40;12.87;;;23.50;48.30;;;;;;5011987;28;20482;-88
2021/05/06 15:05:03;;;;;;;18.57;11.93;;;23.50;48.20;;;;;;5030950;28;20438;-88
2021/05/06 15:07:29;;;;;;;17.03;12.30;;;23.50;48.20;;;;;;5030226;28;20448;-88
2021/05/06 15:09:59;;;;;;;17.20;12.00;;;23.50;48.20;;;;;;5030951;28;20780;-88
2021/05/06 15:12:33;;;;;;;22.37;13.07;;;23.50;48.10;;;;;;5030732;28;20702;-87
2021/05/06 15:14:59;;;;;;;16.50;12.00;;;23.50;48.30;;;;;;5042894;28;20414;-88
2021/05/06 15:17:27;;;;;;;19.53;12.83;;;23.50;48.10;;;;;;5026181;28;20410;-88
2021/05/06 15:19:53;;;;;;;14.93;12.23;;;23.50;48.30;;;;;;5041768;28;20419;-88
2021/05/06 15:22:20;;;;;;;17.33;11.80;;;23.60;48.30;;;;;;5027362;28;20426;-86
2021/05/06 15:24:51;;;;;;;16.33;11.10;;;23.60;48.20;;;;;;5044982;28;20421;-87
2021/05/06 15:27:31;;;;;;;21.07;12.07;;;23.60;48.20;;;;;;5032834;28;20495;-88
2021/05/06 15:29:59;;;;;;;17.30;12.10;;;23.60;48.20;;;;;;5032470;28;20431;-86
2021/05/06 15:32:28;;;;;;;16.43;11.67;;;23.60;48.30;;;;;;5033512;28;20461;-83
2021/05/06 15:35:00;;;;;;;18.17;11.40;;;23.60;48.50;;;;;;5049242;28;20425;-83
2021/05/06 15:37:29;;;;;;;13.83;12.37;;;23.60;48.40;;;;;;5034795;28;20441;-83
2021/05/06 15:39:56;;;;;;;18.10;11.43;;;23.60;48.30;;;;;;5047538;28;20449;-82
2021/05/06 15:42:22;;;;;;;15.73;10.20;;;23.60;48.40;;;;;;5027830;28;20433;-83
2021/05/06 15:44:47;;;;;;;15.00;11.60;;;23.60;48.40;;;;;;5047526;28;20414;-85
2021/05/06 15:47:13;;;;;;;14.00;10.00;;;23.60;48.30;;;;;;5030941;28;20422;-82
2021/05/06 15:49:40;;;;;;;13.57;9.30;;;23.60;48.30;;;;;;5030619;28;20271;-82
2021/05/06 15:52:12;;;;;;;13.60;9.60;;;23.60;48.40;;;;;;5046155;28;20258;-82
2021/05/06 15:54:39;;;;;;;16.10;10.27;;;23.60;48.30;;;;;;5045520;28;20510;-82
2021/05/06 15:57:06;;;;;;;18.40;10.17;;;23.60;48.20;;;;;;5069838;28;20413;-82
2021/05/06 15:59:33;;;;;;;13.80;9.80;;;23.70;48.40;;;;;;5038911;28;20625;-81
2021/05/06 16:02:02;;;;;;;14.90;10.30;;;23.70;48.30;;;;;;5048198;28;20418;-85